sensor_id;sensor_type;location;lat;lon;timestamp;temperature;humidity
14614;DHT22;7393;51.446;6.800;2024-02-14T00:00:33;9.20;1.00
14614;DHT22;7393;51.446;6.800;2024-02-14T00:03:00;9.20;1.00
14614;DHT22;7393;51.446;6.800;2024-02-14T00:05:28;9.20;1.00
14614;DHT22;7393;51.446;6.800;2024-02-14T00:07:55;9.20;1.00
14614;DHT22;7393;51.446;6.800;2024-02-14T00:10:23;9.20;1.00
14614;DHT22;7393;51.446;6.800;2024-02-14T00:12:50;9.10;1.00
14614;DHT22;7393;51.446;6.800;2024-02-14T00:15:17;9.10;1.00
14614;DHT22;7393;51.446;6.800;2024-02-14T00:17:44;9.00;1.00
14614;DHT22;7393;51.446;6.800;2024-02-14T00:20:11;8.90;1.00
14614;DHT22;7393;51.446;6.800;2024-02-14T00:22:38;8.90;1.00
14614;DHT22;7393;51.446;6.800;2024-02-14T00:25:05;8.80;41.40
14614;DHT22;7393;51.446;6.800;2024-02-14T00:27:34;8.80;99.90
14614;DHT22;7393;51.446;6.800;2024-02-14T00:30:01;8.80;99.90
14614;DHT22;7393;51.446;6.800;2024-02-14T00:32:29;8.80;99.90
14614;DHT22;7393;51.446;6.800;2024-02-14T00:34:55;8.80;99.90
14614;DHT22;7393;51.446;6.800;2024-02-14T00:37:22;8.70;99.90
14614;DHT22;7393;51.446;6.800;2024-02-14T00:39:49;8.70;1.00
14614;DHT22;7393;51.446;6.800;2024-02-14T00:42:17;8.80;1.00
14614;DHT22;7393;51.446;6.800;2024-02-14T00:44:45;8.70;1.00
14614;DHT22;7393;51.446;6.800;2024-02-14T00:47:12;8.70;1.00
14614;DHT22;7393;51.446;6.800;2024-02-14T00:49:38;8.70;1.00
14614;DHT22;7393;51.446;6.800;2024-02-14T00:52:05;8.70;1.00
14614;DHT22;7393;51.446;6.800;2024-02-14T00:54:34;8.60;1.00
14614;DHT22;7393;51.446;6.800;2024-02-14T00:57:01;8.60;1.00
14614;DHT22;7393;51.446;6.800;2024-02-14T00:59:27;8.60;99.90
14614;DHT22;7393;51.446;6.800;2024-02-14T01:01:56;8.60;99.90
14614;DHT22;7393;51.446;6.800;2024-02-14T01:04:22;8.60;99.90
14614;DHT22;7393;51.446;6.800;2024-02-14T01:06:49;8.60;99.90
14614;DHT22;7393;51.446;6.800;2024-02-14T01:09:18;8.60;99.90
14614;DHT22;7393;51.446;6.800;2024-02-14T01:11:45;8.60;99.90
14614;DHT22;7393;51.446;6.800;2024-02-14T01:14:11;8.60;99.90
14614;DHT22;7393;51.446;6.800;2024-02-14T01:16:42;8.60;99.90
14614;DHT22;7393;51.446;6.800;2024-02-14T01:19:10;8.60;99.90
14614;DHT22;7393;51.446;6.800;2024-02-14T01:21:37;8.50;99.90
14614;DHT22;7393;51.446;6.800;2024-02-14T01:24:05;8.60;1.00
14614;DHT22;7393;51.446;6.800;2024-02-14T01:26:34;8.60;1.00
14614;DHT22;7393;51.446;6.800;2024-02-14T01:29:00;8.60;99.90
14614;DHT22;7393;51.446;6.800;2024-02-14T01:31:27;8.60;99.90
14614;DHT22;7393;51.446;6.800;2024-02-14T01:33:55;8.60;99.90
14614;DHT22;7393;51.446;6.800;2024-02-14T01:36:23;8.60;1.00
14614;DHT22;7393;51.446;6.800;2024-02-14T01:38:50;8.60;99.90
14614;DHT22;7393;51.446;6.800;2024-02-14T01:41:17;8.60;99.90
14614;DHT22;7393;51.446;6.800;2024-02-14T01:43:44;8.60;99.90
14614;DHT22;7393;51.446;6.800;2024-02-14T01:46:11;8.60;99.90
14614;DHT22;7393;51.446;6.800;2024-02-14T01:48:39;8.60;99.90
14614;DHT22;7393;51.446;6.800;2024-02-14T01:51:08;8.60;99.90
14614;DHT22;7393;51.446;6.800;2024-02-14T01:53:37;8.70;99.90
14614;DHT22;7393;51.446;6.800;2024-02-14T01:56:05;8.60;99.90
14614;DHT22;7393;51.446;6.800;2024-02-14T01:58:33;8.60;99.90
14614;DHT22;7393;51.446;6.800;2024-02-14T02:01:00;8.60;99.90
14614;DHT22;7393;51.446;6.800;2024-02-14T02:03:28;8.70;99.90
14614;DHT22;7393;51.446;6.800;2024-02-14T02:05:55;8.70;99.90
14614;DHT22;7393;51.446;6.800;2024-02-14T02:08:23;8.70;99.90
14614;DHT22;7393;51.446;6.800;2024-02-14T02:10:51;8.70;99.90
14614;DHT22;7393;51.446;6.800;2024-02-14T02:13:18;8.70;99.90
14614;DHT22;7393;51.446;6.800;2024-02-14T02:15:46;8.80;99.90
14614;DHT22;7393;51.446;6.800;2024-02-14T02:18:13;8.80;75.80
14614;DHT22;7393;51.446;6.800;2024-02-14T02:20:40;8.80;73.90
14614;DHT22;7393;51.446;6.800;2024-02-14T02:23:10;8.90;99.90
14614;DHT22;7393;51.446;6.800;2024-02-14T02:25:40;8.90;69.70
14614;DHT22;7393;51.446;6.800;2024-02-14T02:28:07;9.00;1.00
14614;DHT22;7393;51.446;6.800;2024-02-14T02:30:34;9.00;1.00
14614;DHT22;7393;51.446;6.800;2024-02-14T02:33:02;9.00;1.00
14614;DHT22;7393;51.446;6.800;2024-02-14T02:35:29;9.20;1.00
14614;DHT22;7393;51.446;6.800;2024-02-14T02:37:56;9.10;1.00
14614;DHT22;7393;51.446;6.800;2024-02-14T02:40:24;9.10;1.00
14614;DHT22;7393;51.446;6.800;2024-02-14T02:42:52;9.20;1.00
14614;DHT22;7393;51.446;6.800;2024-02-14T02:45:19;9.20;1.00
14614;DHT22;7393;51.446;6.800;2024-02-14T02:47:46;9.30;1.00
14614;DHT22;7393;51.446;6.800;2024-02-14T02:50:13;9.30;1.00
14614;DHT22;7393;51.446;6.800;2024-02-14T02:52:40;9.30;1.00
14614;DHT22;7393;51.446;6.800;2024-02-14T02:55:07;9.30;1.00
14614;DHT22;7393;51.446;6.800;2024-02-14T02:57:37;9.30;1.00
14614;DHT22;7393;51.446;6.800;2024-02-14T03:00:06;9.30;1.00
14614;DHT22;7393;51.446;6.800;2024-02-14T03:02:34;9.30;1.00
14614;DHT22;7393;51.446;6.800;2024-02-14T03:05:04;9.30;1.00
14614;DHT22;7393;51.446;6.800;2024-02-14T03:07:32;9.40;1.00
14614;DHT22;7393;51.446;6.800;2024-02-14T03:09:59;9.40;1.00
14614;DHT22;7393;51.446;6.800;2024-02-14T03:12:25;9.40;1.00
14614;DHT22;7393;51.446;6.800;2024-02-14T03:14:57;9.40;1.00
14614;DHT22;7393;51.446;6.800;2024-02-14T03:17:24;9.40;1.00
14614;DHT22;7393;51.446;6.800;2024-02-14T03:19:51;9.50;1.00
14614;DHT22;7393;51.446;6.800;2024-02-14T03:22:18;9.50;1.00
14614;DHT22;7393;51.446;6.800;2024-02-14T03:24:45;9.50;1.00
14614;DHT22;7393;51.446;6.800;2024-02-14T03:27:12;9.60;1.00
14614;DHT22;7393;51.446;6.800;2024-02-14T03:29:39;9.60;1.00
14614;DHT22;7393;51.446;6.800;2024-02-14T03:32:07;9.60;99.90
14614;DHT22;7393;51.446;6.800;2024-02-14T03:34:34;9.70;99.90
14614;DHT22;7393;51.446;6.800;2024-02-14T03:37:01;9.60;99.90
14614;DHT22;7393;51.446;6.800;2024-02-14T03:39:30;9.70;99.90
14614;DHT22;7393;51.446;6.800;2024-02-14T03:41:57;9.70;99.90
14614;DHT22;7393;51.446;6.800;2024-02-14T03:44:26;9.70;99.90
14614;DHT22;7393;51.446;6.800;2024-02-14T03:46:53;9.70;99.90
14614;DHT22;7393;51.446;6.800;2024-02-14T03:49:21;9.70;1.00
14614;DHT22;7393;51.446;6.800;2024-02-14T03:51:48;9.80;1.00
14614;DHT22;7393;51.446;6.800;2024-02-14T03:54:18;9.80;1.00
14614;DHT22;7393;51.446;6.800;2024-02-14T03:56:45;9.80;1.00
14614;DHT22;7393;51.446;6.800;2024-02-14T03:59:12;9.80;1.00
14614;DHT22;7393;51.446;6.800;2024-02-14T04:01:44;9.80;1.00
14614;DHT22;7393;51.446;6.800;2024-02-14T04:04:10;9.80;1.00
14614;DHT22;7393;51.446;6.800;2024-02-14T04:06:39;9.80;1.00
14614;DHT22;7393;51.446;6.800;2024-02-14T04:09:07;9.80;1.00
14614;DHT22;7393;51.446;6.800;2024-02-14T04:11:34;9.80;1.00
14614;DHT22;7393;51.446;6.800;2024-02-14T04:14:01;9.80;1.00
14614;DHT22;7393;51.446;6.800;2024-02-14T04:16:28;9.80;1.00
14614;DHT22;7393;51.446;6.800;2024-02-14T04:18:55;9.80;1.00
14614;DHT22;7393;51.446;6.800;2024-02-14T04:21:22;9.90;1.00
14614;DHT22;7393;51.446;6.800;2024-02-14T04:23:50;9.90;1.00
14614;DHT22;7393;51.446;6.800;2024-02-14T04:26:20;9.90;1.00
14614;DHT22;7393;51.446;6.800;2024-02-14T04:28:47;9.90;1.00
14614;DHT22;7393;51.446;6.800;2024-02-14T04:31:13;10.00;1.00
14614;DHT22;7393;51.446;6.800;2024-02-14T04:33:41;10.00;99.90
14614;DHT22;7393;51.446;6.800;2024-02-14T04:36:08;10.10;99.90
14614;DHT22;7393;51.446;6.800;2024-02-14T04:38:38;10.10;99.90
14614;DHT22;7393;51.446;6.800;2024-02-14T04:41:07;10.10;99.90
14614;DHT22;7393;51.446;6.800;2024-02-14T04:43:35;10.10;99.90
14614;DHT22;7393;51.446;6.800;2024-02-14T04:46:02;10.10;99.90
14614;DHT22;7393;51.446;6.800;2024-02-14T04:48:32;10.10;99.90
14614;DHT22;7393;51.446;6.800;2024-02-14T04:50:59;10.10;99.90
14614;DHT22;7393;51.446;6.800;2024-02-14T04:53:26;10.10;99.90
14614;DHT22;7393;51.446;6.800;2024-02-14T04:55:53;10.10;99.90
14614;DHT22;7393;51.446;6.800;2024-02-14T04:58:21;10.10;99.90
14614;DHT22;7393;51.446;6.800;2024-02-14T05:00:48;10.10;99.90
14614;DHT22;7393;51.446;6.800;2024-02-14T05:03:15;10.10;99.90
14614;DHT22;7393;51.446;6.800;2024-02-14T05:05:43;10.10;99.90
14614;DHT22;7393;51.446;6.800;2024-02-14T05:08:09;10.10;99.90
14614;DHT22;7393;51.446;6.800;2024-02-14T05:10:36;10.20;99.90
14614;DHT22;7393;51.446;6.800;2024-02-14T05:13:03;10.10;99.90
14614;DHT22;7393;51.446;6.800;2024-02-14T05:15:31;10.20;99.90
14614;DHT22;7393;51.446;6.800;2024-02-14T05:18:00;10.20;99.90
14614;DHT22;7393;51.446;6.800;2024-02-14T05:20:27;10.10;99.90
14614;DHT22;7393;51.446;6.800;2024-02-14T05:22:54;10.20;99.90
14614;DHT22;7393;51.446;6.800;2024-02-14T05:25:21;10.20;99.90
14614;DHT22;7393;51.446;6.800;2024-02-14T05:27:47;10.30;99.90
14614;DHT22;7393;51.446;6.800;2024-02-14T05:30:14;10.20;99.90
14614;DHT22;7393;51.446;6.800;2024-02-14T05:32:42;10.20;99.90
14614;DHT22;7393;51.446;6.800;2024-02-14T05:35:09;10.30;99.90
14614;DHT22;7393;51.446;6.800;2024-02-14T05:37:36;10.20;99.90
14614;DHT22;7393;51.446;6.800;2024-02-14T05:40:04;10.20;99.90
14614;DHT22;7393;51.446;6.800;2024-02-14T05:42:32;10.20;99.90
14614;DHT22;7393;51.446;6.800;2024-02-14T05:45:00;10.20;1.00
14614;DHT22;7393;51.446;6.800;2024-02-14T05:47:29;10.20;1.00
14614;DHT22;7393;51.446;6.800;2024-02-14T05:49:58;10.20;1.00
14614;DHT22;7393;51.446;6.800;2024-02-14T05:52:25;10.20;1.00
14614;DHT22;7393;51.446;6.800;2024-02-14T05:54:52;10.20;1.00
14614;DHT22;7393;51.446;6.800;2024-02-14T05:57:19;10.20;1.00
14614;DHT22;7393;51.446;6.800;2024-02-14T05:59:46;10.30;1.00
14614;DHT22;7393;51.446;6.800;2024-02-14T06:02:13;10.20;1.00
14614;DHT22;7393;51.446;6.800;2024-02-14T06:04:39;10.30;65.50
14614;DHT22;7393;51.446;6.800;2024-02-14T06:07:09;10.20;32.40
14614;DHT22;7393;51.446;6.800;2024-02-14T06:09:37;10.30;99.90
14614;DHT22;7393;51.446;6.800;2024-02-14T06:12:04;10.20;99.90
14614;DHT22;7393;51.446;6.800;2024-02-14T06:14:31;10.20;99.90
14614;DHT22;7393;51.446;6.800;2024-02-14T06:16:59;10.20;99.90
14614;DHT22;7393;51.446;6.800;2024-02-14T06:19:26;10.20;1.00
14614;DHT22;7393;51.446;6.800;2024-02-14T06:21:53;10.30;1.00
14614;DHT22;7393;51.446;6.800;2024-02-14T06:24:21;10.20;1.00
14614;DHT22;7393;51.446;6.800;2024-02-14T06:26:48;10.30;99.90
14614;DHT22;7393;51.446;6.800;2024-02-14T06:29:14;10.30;99.90
14614;DHT22;7393;51.446;6.800;2024-02-14T06:31:42;10.30;1.00
14614;DHT22;7393;51.446;6.800;2024-02-14T06:34:08;10.20;1.00
14614;DHT22;7393;51.446;6.800;2024-02-14T06:36:36;10.20;1.00
14614;DHT22;7393;51.446;6.800;2024-02-14T06:39:02;10.20;1.00
14614;DHT22;7393;51.446;6.800;2024-02-14T06:41:31;10.20;1.00
14614;DHT22;7393;51.446;6.800;2024-02-14T06:43:57;10.20;99.90
14614;DHT22;7393;51.446;6.800;2024-02-14T06:46:24;10.20;99.90
14614;DHT22;7393;51.446;6.800;2024-02-14T06:48:51;10.20;1.00
14614;DHT22;7393;51.446;6.800;2024-02-14T06:51:17;10.20;99.90
14614;DHT22;7393;51.446;6.800;2024-02-14T06:53:45;10.20;1.00
14614;DHT22;7393;51.446;6.800;2024-02-14T06:56:12;10.20;99.90
14614;DHT22;7393;51.446;6.800;2024-02-14T06:58:40;10.30;99.90
14614;DHT22;7393;51.446;6.800;2024-02-14T07:01:07;10.30;99.90
14614;DHT22;7393;51.446;6.800;2024-02-14T07:03:34;10.30;1.00
14614;DHT22;7393;51.446;6.800;2024-02-14T07:06:01;10.30;1.00
14614;DHT22;7393;51.446;6.800;2024-02-14T07:08:28;10.20;1.00
14614;DHT22;7393;51.446;6.800;2024-02-14T07:10:55;10.20;1.00
14614;DHT22;7393;51.446;6.800;2024-02-14T07:13:22;10.20;99.90
14614;DHT22;7393;51.446;6.800;2024-02-14T07:15:50;10.30;57.20
14614;DHT22;7393;51.446;6.800;2024-02-14T07:18:16;10.30;15.40
14614;DHT22;7393;51.446;6.800;2024-02-14T07:20:43;10.20;5.30
14614;DHT22;7393;51.446;6.800;2024-02-14T07:23:10;10.30;1.00
14614;DHT22;7393;51.446;6.800;2024-02-14T07:25:37;10.30;99.90
14614;DHT22;7393;51.446;6.800;2024-02-14T07:28:04;10.30;1.00
14614;DHT22;7393;51.446;6.800;2024-02-14T07:30:31;10.30;1.00
14614;DHT22;7393;51.446;6.800;2024-02-14T07:32:59;10.40;1.00
14614;DHT22;7393;51.446;6.800;2024-02-14T07:35:26;10.40;1.00
14614;DHT22;7393;51.446;6.800;2024-02-14T07:37:52;10.30;1.00
14614;DHT22;7393;51.446;6.800;2024-02-14T07:40:20;10.30;99.90
14614;DHT22;7393;51.446;6.800;2024-02-14T07:42:47;10.30;1.00
14614;DHT22;7393;51.446;6.800;2024-02-14T07:45:14;10.30;1.00
14614;DHT22;7393;51.446;6.800;2024-02-14T07:47:41;10.30;1.00
14614;DHT22;7393;51.446;6.800;2024-02-14T07:50:09;10.40;99.90
14614;DHT22;7393;51.446;6.800;2024-02-14T07:52:36;10.40;1.00
14614;DHT22;7393;51.446;6.800;2024-02-14T07:55:03;10.40;1.00
14614;DHT22;7393;51.446;6.800;2024-02-14T07:57:30;10.30;29.00
14614;DHT22;7393;51.446;6.800;2024-02-14T07:59:57;10.30;99.90
14614;DHT22;7393;51.446;6.800;2024-02-14T08:02:24;10.30;99.90
14614;DHT22;7393;51.446;6.800;2024-02-14T08:04:53;10.30;99.90
14614;DHT22;7393;51.446;6.800;2024-02-14T08:07:21;10.40;99.90
14614;DHT22;7393;51.446;6.800;2024-02-14T08:09:47;10.40;1.00
14614;DHT22;7393;51.446;6.800;2024-02-14T08:12:14;10.40;99.90
14614;DHT22;7393;51.446;6.800;2024-02-14T08:14:41;10.40;99.90
14614;DHT22;7393;51.446;6.800;2024-02-14T08:17:08;10.40;99.90
14614;DHT22;7393;51.446;6.800;2024-02-14T08:19:34;10.50;99.90
14614;DHT22;7393;51.446;6.800;2024-02-14T08:22:01;10.50;1.00
14614;DHT22;7393;51.446;6.800;2024-02-14T08:24:29;10.50;1.00
14614;DHT22;7393;51.446;6.800;2024-02-14T08:26:56;10.50;1.00
14614;DHT22;7393;51.446;6.800;2024-02-14T08:29:23;10.60;1.00
14614;DHT22;7393;51.446;6.800;2024-02-14T08:31:49;10.60;99.90
14614;DHT22;7393;51.446;6.800;2024-02-14T08:34:16;10.70;99.90
14614;DHT22;7393;51.446;6.800;2024-02-14T08:36:43;10.70;1.00
14614;DHT22;7393;51.446;6.800;2024-02-14T08:39:10;10.70;1.00
14614;DHT22;7393;51.446;6.800;2024-02-14T08:41:39;10.70;99.90
14614;DHT22;7393;51.446;6.800;2024-02-14T08:44:09;10.70;99.90
14614;DHT22;7393;51.446;6.800;2024-02-14T08:46:35;10.60;99.90
14614;DHT22;7393;51.446;6.800;2024-02-14T08:49:02;10.70;99.90
14614;DHT22;7393;51.446;6.800;2024-02-14T08:51:33;10.70;1.00
14614;DHT22;7393;51.446;6.800;2024-02-14T08:54:00;10.80;99.90
14614;DHT22;7393;51.446;6.800;2024-02-14T08:56:30;10.70;99.90
14614;DHT22;7393;51.446;6.800;2024-02-14T08:59:00;10.80;1.00
14614;DHT22;7393;51.446;6.800;2024-02-14T09:01:27;10.80;1.00
14614;DHT22;7393;51.446;6.800;2024-02-14T09:03:54;10.90;1.00
14614;DHT22;7393;51.446;6.800;2024-02-14T09:06:21;10.90;1.00
14614;DHT22;7393;51.446;6.800;2024-02-14T09:08:48;10.80;1.00
14614;DHT22;7393;51.446;6.800;2024-02-14T09:11:16;10.80;99.90
14614;DHT22;7393;51.446;6.800;2024-02-14T09:13:42;10.80;1.00
14614;DHT22;7393;51.446;6.800;2024-02-14T09:16:11;10.80;1.00
14614;DHT22;7393;51.446;6.800;2024-02-14T09:18:39;10.80;99.90
14614;DHT22;7393;51.446;6.800;2024-02-14T09:21:06;10.80;1.00
14614;DHT22;7393;51.446;6.800;2024-02-14T09:23:34;10.70;1.00
14614;DHT22;7393;51.446;6.800;2024-02-14T09:26:04;10.80;1.00
14614;DHT22;7393;51.446;6.800;2024-02-14T09:28:31;10.80;1.00
14614;DHT22;7393;51.446;6.800;2024-02-14T09:30:58;10.80;1.00
14614;DHT22;7393;51.446;6.800;2024-02-14T09:33:26;10.80;97.10
14614;DHT22;7393;51.446;6.800;2024-02-14T09:35:53;10.80;99.90
14614;DHT22;7393;51.446;6.800;2024-02-14T09:38:20;10.80;99.90
14614;DHT22;7393;51.446;6.800;2024-02-14T09:40:47;10.80;99.90
14614;DHT22;7393;51.446;6.800;2024-02-14T09:43:25;10.80;99.90
14614;DHT22;7393;51.446;6.800;2024-02-14T09:45:54;10.80;1.00
14614;DHT22;7393;51.446;6.800;2024-02-14T09:48:22;10.90;99.90
14614;DHT22;7393;51.446;6.800;2024-02-14T09:50:52;10.90;99.90
14614;DHT22;7393;51.446;6.800;2024-02-14T09:53:20;11.00;1.00
14614;DHT22;7393;51.446;6.800;2024-02-14T09:55:48;11.00;99.90
14614;DHT22;7393;51.446;6.800;2024-02-14T09:58:16;11.10;99.90
14614;DHT22;7393;51.446;6.800;2024-02-14T10:00:43;11.10;1.00
14614;DHT22;7393;51.446;6.800;2024-02-14T10:03:10;11.10;1.00
14614;DHT22;7393;51.446;6.800;2024-02-14T10:05:37;11.20;99.90
14614;DHT22;7393;51.446;6.800;2024-02-14T10:08:06;11.20;1.00
14614;DHT22;7393;51.446;6.800;2024-02-14T10:10:34;11.30;1.00
14614;DHT22;7393;51.446;6.800;2024-02-14T10:13:04;11.40;1.00
14614;DHT22;7393;51.446;6.800;2024-02-14T10:15:30;11.50;1.00
14614;DHT22;7393;51.446;6.800;2024-02-14T10:17:57;11.50;1.00
14614;DHT22;7393;51.446;6.800;2024-02-14T10:20:24;11.50;1.00
14614;DHT22;7393;51.446;6.800;2024-02-14T10:22:52;11.50;1.00
14614;DHT22;7393;51.446;6.800;2024-02-14T10:25:27;11.50;1.00
14614;DHT22;7393;51.446;6.800;2024-02-14T10:27:54;11.50;1.00
14614;DHT22;7393;51.446;6.800;2024-02-14T10:30:21;11.60;1.00
14614;DHT22;7393;51.446;6.800;2024-02-14T10:32:48;11.60;1.00
14614;DHT22;7393;51.446;6.800;2024-02-14T10:35:15;11.60;1.00
14614;DHT22;7393;51.446;6.800;2024-02-14T10:37:42;11.60;99.90
14614;DHT22;7393;51.446;6.800;2024-02-14T10:40:09;11.60;99.90
14614;DHT22;7393;51.446;6.800;2024-02-14T10:42:37;11.70;99.90
14614;DHT22;7393;51.446;6.800;2024-02-14T10:45:05;11.70;1.00
14614;DHT22;7393;51.446;6.800;2024-02-14T10:47:34;11.70;1.00
14614;DHT22;7393;51.446;6.800;2024-02-14T10:50:03;11.70;99.90
14614;DHT22;7393;51.446;6.800;2024-02-14T10:52:31;11.70;99.90
14614;DHT22;7393;51.446;6.800;2024-02-14T10:55:01;11.70;1.00
14614;DHT22;7393;51.446;6.800;2024-02-14T10:57:28;11.70;99.90
14614;DHT22;7393;51.446;6.800;2024-02-14T11:00:01;11.70;99.90
14614;DHT22;7393;51.446;6.800;2024-02-14T11:02:28;11.80;99.90
14614;DHT22;7393;51.446;6.800;2024-02-14T11:04:56;11.80;79.00
14614;DHT22;7393;51.446;6.800;2024-02-14T11:07:23;11.80;99.90
14614;DHT22;7393;51.446;6.800;2024-02-14T11:10:00;11.80;99.90
14614;DHT22;7393;51.446;6.800;2024-02-14T11:12:33;11.80;99.90
14614;DHT22;7393;51.446;6.800;2024-02-14T11:15:08;11.80;99.90
14614;DHT22;7393;51.446;6.800;2024-02-14T11:17:36;11.90;1.00
14614;DHT22;7393;51.446;6.800;2024-02-14T11:20:13;11.90;1.00
14614;DHT22;7393;51.446;6.800;2024-02-14T11:22:40;12.00;1.00
14614;DHT22;7393;51.446;6.800;2024-02-14T11:25:16;12.00;1.00
14614;DHT22;7393;51.446;6.800;2024-02-14T11:27:45;12.00;1.00
14614;DHT22;7393;51.446;6.800;2024-02-14T11:30:13;12.00;1.00
14614;DHT22;7393;51.446;6.800;2024-02-14T11:32:42;12.10;1.00
14614;DHT22;7393;51.446;6.800;2024-02-14T11:35:11;12.10;1.00
14614;DHT22;7393;51.446;6.800;2024-02-14T11:37:39;12.20;99.90
14614;DHT22;7393;51.446;6.800;2024-02-14T11:40:08;12.20;99.90
14614;DHT22;7393;51.446;6.800;2024-02-14T11:42:35;12.20;99.90
14614;DHT22;7393;51.446;6.800;2024-02-14T11:45:02;12.20;99.90
14614;DHT22;7393;51.446;6.800;2024-02-14T11:47:30;12.30;99.90
14614;DHT22;7393;51.446;6.800;2024-02-14T11:49:57;12.30;99.90
14614;DHT22;7393;51.446;6.800;2024-02-14T11:52:24;12.40;99.90
14614;DHT22;7393;51.446;6.800;2024-02-14T11:54:51;12.30;99.90
14614;DHT22;7393;51.446;6.800;2024-02-14T11:57:18;12.40;99.90
14614;DHT22;7393;51.446;6.800;2024-02-14T11:59:45;12.40;99.90
14614;DHT22;7393;51.446;6.800;2024-02-14T12:02:13;12.50;99.90
14614;DHT22;7393;51.446;6.800;2024-02-14T12:04:42;12.60;99.90
14614;DHT22;7393;51.446;6.800;2024-02-14T12:07:09;12.60;99.90
14614;DHT22;7393;51.446;6.800;2024-02-14T12:09:36;12.60;99.90
14614;DHT22;7393;51.446;6.800;2024-02-14T12:12:04;12.70;99.90
14614;DHT22;7393;51.446;6.800;2024-02-14T12:14:32;12.70;99.90
14614;DHT22;7393;51.446;6.800;2024-02-14T12:17:00;12.70;99.90
14614;DHT22;7393;51.446;6.800;2024-02-14T12:19:28;12.70;99.90
14614;DHT22;7393;51.446;6.800;2024-02-14T12:21:56;12.70;99.90
14614;DHT22;7393;51.446;6.800;2024-02-14T12:24:27;12.60;99.90
14614;DHT22;7393;51.446;6.800;2024-02-14T12:26:54;12.60;1.00
14614;DHT22;7393;51.446;6.800;2024-02-14T12:29:23;12.60;1.00
14614;DHT22;7393;51.446;6.800;2024-02-14T12:31:50;12.60;1.00
14614;DHT22;7393;51.446;6.800;2024-02-14T12:34:17;12.60;1.00
14614;DHT22;7393;51.446;6.800;2024-02-14T12:36:45;12.70;99.90
14614;DHT22;7393;51.446;6.800;2024-02-14T12:39:13;12.70;99.90
14614;DHT22;7393;51.446;6.800;2024-02-14T12:41:40;12.70;99.90
14614;DHT22;7393;51.446;6.800;2024-02-14T12:44:07;12.70;99.90
14614;DHT22;7393;51.446;6.800;2024-02-14T12:46:34;12.70;1.00
14614;DHT22;7393;51.446;6.800;2024-02-14T12:49:03;12.70;1.00
14614;DHT22;7393;51.446;6.800;2024-02-14T12:51:30;12.70;1.00
14614;DHT22;7393;51.446;6.800;2024-02-14T12:53:57;12.70;1.00
14614;DHT22;7393;51.446;6.800;2024-02-14T12:56:25;12.70;1.00
14614;DHT22;7393;51.446;6.800;2024-02-14T12:58:51;12.70;1.00
14614;DHT22;7393;51.446;6.800;2024-02-14T13:01:18;12.60;1.00
14614;DHT22;7393;51.446;6.800;2024-02-14T13:03:45;12.60;1.00
14614;DHT22;7393;51.446;6.800;2024-02-14T13:06:12;12.60;99.90
14614;DHT22;7393;51.446;6.800;2024-02-14T13:08:39;12.60;1.00
14614;DHT22;7393;51.446;6.800;2024-02-14T13:11:06;12.50;99.90
14614;DHT22;7393;51.446;6.800;2024-02-14T13:13:35;12.60;1.00
14614;DHT22;7393;51.446;6.800;2024-02-14T13:16:02;12.60;1.00
14614;DHT22;7393;51.446;6.800;2024-02-14T13:18:31;12.60;1.00
14614;DHT22;7393;51.446;6.800;2024-02-14T13:20:58;12.60;1.00
14614;DHT22;7393;51.446;6.800;2024-02-14T13:23:25;12.60;1.00
14614;DHT22;7393;51.446;6.800;2024-02-14T13:25:52;12.70;1.00
14614;DHT22;7393;51.446;6.800;2024-02-14T13:28:18;12.70;1.00
14614;DHT22;7393;51.446;6.800;2024-02-14T13:30:47;12.70;1.00
14614;DHT22;7393;51.446;6.800;2024-02-14T13:33:13;12.60;1.00
14614;DHT22;7393;51.446;6.800;2024-02-14T13:35:40;12.70;1.00
14614;DHT22;7393;51.446;6.800;2024-02-14T13:38:07;12.60;1.00
14614;DHT22;7393;51.446;6.800;2024-02-14T13:40:35;12.70;1.00
14614;DHT22;7393;51.446;6.800;2024-02-14T13:43:01;12.70;1.00
14614;DHT22;7393;51.446;6.800;2024-02-14T13:45:40;12.60;1.00
14614;DHT22;7393;51.446;6.800;2024-02-14T13:48:10;12.60;1.00
14614;DHT22;7393;51.446;6.800;2024-02-14T13:50:37;12.60;1.00
14614;DHT22;7393;51.446;6.800;2024-02-14T13:53:04;12.60;1.00
14614;DHT22;7393;51.446;6.800;2024-02-14T13:55:31;12.60;1.00
14614;DHT22;7393;51.446;6.800;2024-02-14T13:57:58;12.70;1.00
14614;DHT22;7393;51.446;6.800;2024-02-14T14:00:25;12.70;1.00
14614;DHT22;7393;51.446;6.800;2024-02-14T14:02:52;12.80;1.00
14614;DHT22;7393;51.446;6.800;2024-02-14T14:05:22;12.80;1.00
14614;DHT22;7393;51.446;6.800;2024-02-14T14:07:49;12.80;1.00
14614;DHT22;7393;51.446;6.800;2024-02-14T14:10:15;12.70;1.00
14614;DHT22;7393;51.446;6.800;2024-02-14T14:12:42;12.70;1.00
14614;DHT22;7393;51.446;6.800;2024-02-14T14:15:09;12.70;1.00
14614;DHT22;7393;51.446;6.800;2024-02-14T14:17:36;12.80;1.00
14614;DHT22;7393;51.446;6.800;2024-02-14T14:20:03;12.70;1.00
14614;DHT22;7393;51.446;6.800;2024-02-14T14:22:31;12.80;1.00
14614;DHT22;7393;51.446;6.800;2024-02-14T14:24:58;12.70;99.90
14614;DHT22;7393;51.446;6.800;2024-02-14T14:27:25;12.70;1.00
14614;DHT22;7393;51.446;6.800;2024-02-14T14:29:52;12.70;1.00
14614;DHT22;7393;51.446;6.800;2024-02-14T14:32:19;12.70;1.00
14614;DHT22;7393;51.446;6.800;2024-02-14T14:34:46;12.70;1.00
14614;DHT22;7393;51.446;6.800;2024-02-14T14:37:12;12.60;99.90
14614;DHT22;7393;51.446;6.800;2024-02-14T14:39:40;12.60;1.00
14614;DHT22;7393;51.446;6.800;2024-02-14T14:42:09;12.50;32.20
14614;DHT22;7393;51.446;6.800;2024-02-14T14:44:36;12.50;1.00
14614;DHT22;7393;51.446;6.800;2024-02-14T14:47:04;12.50;99.90
14614;DHT22;7393;51.446;6.800;2024-02-14T14:49:30;12.50;1.00
14614;DHT22;7393;51.446;6.800;2024-02-14T14:51:57;12.40;99.90
14614;DHT22;7393;51.446;6.800;2024-02-14T14:54:24;12.50;99.90
14614;DHT22;7393;51.446;6.800;2024-02-14T14:56:54;12.40;1.00
14614;DHT22;7393;51.446;6.800;2024-02-14T14:59:21;12.30;1.00
14614;DHT22;7393;51.446;6.800;2024-02-14T15:01:48;12.30;99.90
14614;DHT22;7393;51.446;6.800;2024-02-14T15:04:15;12.30;1.00
14614;DHT22;7393;51.446;6.800;2024-02-14T15:06:42;12.30;99.90
14614;DHT22;7393;51.446;6.800;2024-02-14T15:09:09;12.30;1.00
14614;DHT22;7393;51.446;6.800;2024-02-14T15:11:36;12.30;1.00
14614;DHT22;7393;51.446;6.800;2024-02-14T15:14:04;12.30;1.00
14614;DHT22;7393;51.446;6.800;2024-02-14T15:16:32;12.30;1.00
14614;DHT22;7393;51.446;6.800;2024-02-14T15:18:59;12.30;1.00
14614;DHT22;7393;51.446;6.800;2024-02-14T15:21:26;12.30;68.40
14614;DHT22;7393;51.446;6.800;2024-02-14T15:23:52;12.30;99.90
14614;DHT22;7393;51.446;6.800;2024-02-14T15:26:18;12.30;99.90
14614;DHT22;7393;51.446;6.800;2024-02-14T15:28:49;12.30;1.00
14614;DHT22;7393;51.446;6.800;2024-02-14T15:31:24;12.30;1.00
14614;DHT22;7393;51.446;6.800;2024-02-14T15:34:08;12.30;1.00
14614;DHT22;7393;51.446;6.800;2024-02-14T15:36:36;12.20;44.90
14614;DHT22;7393;51.446;6.800;2024-02-14T15:39:03;12.30;99.90
14614;DHT22;7393;51.446;6.800;2024-02-14T15:41:30;12.30;99.90
14614;DHT22;7393;51.446;6.800;2024-02-14T15:43:57;12.30;1.00
14614;DHT22;7393;51.446;6.800;2024-02-14T15:46:25;12.20;80.30
14614;DHT22;7393;51.446;6.800;2024-02-14T15:48:52;12.20;1.00
14614;DHT22;7393;51.446;6.800;2024-02-14T15:51:20;12.20;99.90
14614;DHT22;7393;51.446;6.800;2024-02-14T15:53:49;12.20;1.00
14614;DHT22;7393;51.446;6.800;2024-02-14T15:56:15;12.20;99.90
14614;DHT22;7393;51.446;6.800;2024-02-14T15:58:43;12.30;99.90
14614;DHT22;7393;51.446;6.800;2024-02-14T16:01:11;12.30;99.90